Time,TemperatureF,DewpointF,PressureIn,WindDirection,WindDirectionDegrees,WindSpeedMPH,WindSpeedGustMPH,Humidity,HourlyPrecipIn,Conditions,Clouds,dailyrainin,SoftwareType,DateUTC
2013-08-03 00:06:00,55.2,53.5,29.78,East,90,2.7,-999.0,94,-99.99,,,0.00,Acu-Link.com,2013-08-03 07:06:00,
2013-08-03 00:21:00,55.2,53.5,29.78,NNE,22,0.0,-999.0,94,-99.99,,,0.00,Acu-Link.com,2013-08-03 07:21:00,
2013-08-03 00:36:00,55.4,53.7,29.77,North,0,1.1,-999.0,94,-99.99,,,0.00,Acu-Link.com,2013-08-03 07:36:00,
2013-08-03 01:07:00,55.2,53.5,29.77,North,0,1.7,-999.0,94,-99.99,,,0.00,Acu-Link.com,2013-08-03 08:07:00,
2013-08-03 01:22:00,55.2,53.5,29.78,West,270,3.2,-999.0,94,-99.99,,,0.00,Acu-Link.com,2013-08-03 08:22:00,
2013-08-03 01:37:00,55.2,53.5,29.77,WSW,247,1.7,-999.0,94,-99.99,,,0.00,Acu-Link.com,2013-08-03 08:37:00,
2013-08-03 01:52:00,55.0,53.3,29.77,NNW,337,2.2,-999.0,94,-99.99,,,0.00,Acu-Link.com,2013-08-03 08:52:00,
2013-08-03 02:07:00,55.0,53.6,29.77,NNW,337,2.7,-999.0,95,-99.99,,,0.00,Acu-Link.com,2013-08-03 09:07:00,
2013-08-03 02:22:00,54.9,53.8,29.77,South,180,2.7,-999.0,96,-99.99,,,0.00,Acu-Link.com,2013-08-03 09:22:00,
2013-08-03 02:38:00,54.9,53.8,29.76,NNW,337,2.7,-999.0,96,-99.99,,,0.00,Acu-Link.com,2013-08-03 09:38:00,
2013-08-03 02:53:00,54.9,53.8,29.77,NW,315,3.2,-999.0,96,-99.99,,,0.00,Acu-Link.com,2013-08-03 09:53:00,
2013-08-03 03:08:00,54.9,53.8,29.77,NNE,22,5.3,-999.0,96,-99.99,,,0.00,Acu-Link.com,2013-08-03 10:08:00,
2013-08-03 03:23:00,54.9,53.8,29.77,West,270,2.2,-999.0,96,-99.99,,,0.00,Acu-Link.com,2013-08-03 10:23:00,
2013-08-03 03:39:00,54.7,53.9,29.77,East,90,2.7,-999.0,97,-99.99,,,0.00,Acu-Link.com,2013-08-03 10:39:00,
2013-08-03 03:54:00,54.7,53.9,29.77,WNW,292,3.2,-999.0,97,-99.99,,,0.00,Acu-Link.com,2013-08-03 10:54:00,
2013-08-03 04:09:00,54.7,53.9,29.77,West,270,2.2,-999.0,97,-99.99,,,0.00,Acu-Link.com,2013-08-03 11:09:00,
2013-08-03 04:25:00,54.7,53.9,29.77,WSW,247,4.2,-999.0,97,-99.99,,,0.00,Acu-Link.com,2013-08-03 11:25:00,
2013-08-03 04:40:00,54.5,53.7,29.77,SW,225,3.7,-999.0,97,-99.99,,,0.00,Acu-Link.com,2013-08-03 11:40:00,
2013-08-03 04:56:00,54.3,53.5,29.77,SSE,157,1.7,-999.0,97,-99.99,,,0.00,Acu-Link.com,2013-08-03 11:56:00,
2013-08-03 05:11:00,54.3,53.5,29.77,ENE,67,2.7,-999.0,97,-99.99,,,0.00,Acu-Link.com,2013-08-03 12:11:00,
2013-08-03 05:41:00,54.1,53.3,29.77,WNW,292,1.7,-999.0,97,-99.99,,,0.00,Acu-Link.com,2013-08-03 12:41:00,
2013-08-03 05:57:00,54.1,53.3,29.78,North,0,4.7,-999.0,97,-99.99,,,0.00,Acu-Link.com,2013-08-03 12:57:00,
2013-08-03 06:12:00,54.1,53.5,29.78,North,0,2.7,-999.0,98,-99.99,,,0.00,Acu-Link.com,2013-08-03 13:12:00,
2013-08-03 06:27:00,54.1,53.5,29.78,East,90,3.7,-999.0,98,-99.99,,,0.00,Acu-Link.com,2013-08-03 13:27:00,
2013-08-03 06:42:00,54.1,53.5,29.79,NNE,22,3.7,-999.0,98,-99.99,,,0.00,Acu-Link.com,2013-08-03 13:42:00,
2013-08-03 06:58:00,54.1,53.5,29.79,SE,135,4.2,-999.0,98,-99.99,,,0.00,Acu-Link.com,2013-08-03 13:58:00,
2013-08-03 07:13:00,54.3,53.5,29.79,WSW,247,0.0,-999.0,97,-99.99,,,0.00,Acu-Link.com,2013-08-03 14:13:00,
2013-08-03 07:28:00,54.5,53.7,29.80,NW,315,2.2,-999.0,97,-99.99,,,0.00,Acu-Link.com,2013-08-03 14:28:00,
2013-08-03 07:44:00,54.5,53.7,29.81,NW,315,2.7,-999.0,97,-99.99,,,0.00,Acu-Link.com,2013-08-03 14:44:00,
2013-08-03 07:58:00,54.9,53.8,29.81,ESE,112,1.1,-999.0,96,-99.99,,,0.00,Acu-Link.com,2013-08-03 14:58:00,
2013-08-03 08:14:00,55.2,54.1,29.81,NE,45,0.0,-999.0,96,-99.99,,,0.00,Acu-Link.com,2013-08-03 15:14:00,
2013-08-03 08:29:00,55.6,54.2,29.81,ESE,112,0.0,-999.0,95,-99.99,,,0.00,Acu-Link.com,2013-08-03 15:29:00,
2013-08-03 08:44:00,55.9,54.2,29.82,SW,225,5.3,-999.0,94,-99.99,,,0.00,Acu-Link.com,2013-08-03 15:44:00,
2013-08-03 08:59:00,56.1,54.1,29.81,WNW,292,2.7,-999.0,93,-99.99,,,0.00,Acu-Link.com,2013-08-03 15:59:00,
2013-08-03 09:14:00,57.4,54.2,29.81,West,270,5.3,-999.0,89,-99.99,,,0.00,Acu-Link.com,2013-08-03 16:14:00,
2013-08-03 09:30:00,57.4,54.2,29.81,NE,45,3.2,-999.0,89,-99.99,,,0.00,Acu-Link.com,2013-08-03 16:30:00,
2013-08-03 09:45:00,58.5,54.6,29.82,WNW,292,2.7,-999.0,87,-99.99,,,0.00,Acu-Link.com,2013-08-03 16:45:00,
2013-08-03 10:01:00,59.0,54.2,29.81,WNW,292,4.7,-999.0,84,-99.99,,,0.00,Acu-Link.com,2013-08-03 17:01:00,
2013-08-03 10:47:00,62.2,54.5,29.81,West,270,6.8,-999.0,76,-99.99,,,0.00,Acu-Link.com,2013-08-03 17:47:00,
2013-08-03 11:02:00,64.0,54.8,29.81,South,180,4.7,-999.0,72,-99.99,,,0.00,Acu-Link.com,2013-08-03 18:02:00,
2013-08-03 11:18:00,66.4,55.1,29.81,ENE,67,4.2,-999.0,67,-99.99,,,0.00,Acu-Link.com,2013-08-03 18:18:00,
2013-08-03 11:33:00,68.0,55.4,29.81,SW,225,3.2,-999.0,64,-99.99,,,0.00,Acu-Link.com,2013-08-03 18:33:00,
2013-08-03 11:48:00,67.6,55.0,29.81,NW,315,9.4,-999.0,64,-99.99,,,0.00,Acu-Link.com,2013-08-03 18:48:00,
2013-08-03 12:03:00,67.6,55.4,29.80,East,90,4.2,-999.0,65,-99.99,,,0.00,Acu-Link.com,2013-08-03 19:03:00,
2013-08-03 12:18:00,67.3,55.1,29.81,WNW,292,5.8,-999.0,65,-99.99,,,0.00,Acu-Link.com,2013-08-03 19:18:00,
2013-08-03 12:33:00,68.7,56.0,29.80,NNW,337,4.2,-999.0,64,-99.99,,,0.00,Acu-Link.com,2013-08-03 19:33:00,
2013-08-03 12:49:00,66.6,55.3,29.80,West,270,5.3,-999.0,67,-99.99,,,0.00,Acu-Link.com,2013-08-03 19:49:00,
2013-08-03 13:04:00,67.5,55.7,29.80,South,180,6.8,-999.0,66,-99.99,,,0.00,Acu-Link.com,2013-08-03 20:04:00,
2013-08-03 13:19:00,66.9,55.2,29.80,NW,315,4.2,-999.0,66,-99.99,,,0.00,Acu-Link.com,2013-08-03 20:19:00,
2013-08-03 13:34:00,68.5,55.4,29.80,WNW,292,6.8,-999.0,63,-99.99,,,0.00,Acu-Link.com,2013-08-03 20:34:00,
2013-08-03 13:49:00,66.9,55.2,29.80,West,270,7.3,-999.0,66,-99.99,,,0.00,Acu-Link.com,2013-08-03 20:49:00,
2013-08-03 14:05:00,66.9,55.2,29.80,NW,315,7.8,-999.0,66,-99.99,,,0.00,Acu-Link.com,2013-08-03 21:05:00,
2013-08-03 14:20:00,67.8,55.6,29.79,NW,315,7.3,-999.0,65,-99.99,,,0.00,Acu-Link.com,2013-08-03 21:20:00,
2013-08-03 14:35:00,67.5,55.3,29.79,NNW,337,1.7,-999.0,65,-99.99,,,0.00,Acu-Link.com,2013-08-03 21:35:00,
2013-08-03 14:50:00,68.7,55.6,29.79,North,0,5.8,-999.0,63,-99.99,,,0.00,Acu-Link.com,2013-08-03 21:50:00,
2013-08-03 15:05:00,66.9,55.2,29.79,ENE,67,8.3,-999.0,66,-99.99,,,0.00,Acu-Link.com,2013-08-03 22:05:00,
2013-08-03 15:20:00,66.7,55.4,29.78,NNW,337,6.3,-999.0,67,-99.99,,,0.00,Acu-Link.com,2013-08-03 22:20:00,
2013-08-03 15:35:00,67.1,55.4,29.77,East,90,7.3,-999.0,66,-99.99,,,0.00,Acu-Link.com,2013-08-03 22:35:00,
2013-08-03 15:50:00,68.2,55.5,29.77,WNW,292,5.8,-999.0,64,-99.99,,,0.00,Acu-Link.com,2013-08-03 22:50:00,
2013-08-03 16:05:00,69.3,56.2,29.77,WNW,292,7.8,-999.0,63,-99.99,,,0.00,Acu-Link.com,2013-08-03 23:05:00,
2013-08-03 16:21:00,67.8,55.6,29.77,NE,45,8.9,-999.0,65,-99.99,,,0.00,Acu-Link.com,2013-08-03 23:21:00,
2013-08-03 16:36:00,63.9,55.1,29.77,West,270,5.3,-999.0,73,-99.99,,,0.00,Acu-Link.com,2013-08-03 23:36:00,
2013-08-03 16:51:00,63.7,55.3,29.76,NW,315,8.9,-999.0,74,-99.99,,,0.00,Acu-Link.com,2013-08-03 23:51:00,
2013-08-03 17:06:00,63.9,55.8,29.76,NE,45,3.2,-999.0,75,-99.99,,,0.00,Acu-Link.com,2013-08-04 00:06:00,
2013-08-03 17:21:00,61.3,55.1,29.76,SSW,202,7.8,-999.0,80,-99.99,,,0.00,Acu-Link.com,2013-08-04 00:21:00,
2013-08-03 17:36:00,60.4,54.5,29.76,NNW,337,3.7,-999.0,81,-99.99,,,0.00,Acu-Link.com,2013-08-04 00:36:00,
2013-08-03 17:52:00,59.5,54.7,29.75,West,270,8.3,-999.0,84,-99.99,,,0.00,Acu-Link.com,2013-08-04 00:52:00,
2013-08-03 18:07:00,59.4,54.6,29.75,ESE,112,14.5,-999.0,84,-99.99,,,0.00,Acu-Link.com,2013-08-04 01:07:00,
2013-08-03 18:22:00,59.4,54.9,29.75,West,270,9.9,-999.0,85,-99.99,,,0.00,Acu-Link.com,2013-08-04 01:22:00,
2013-08-03 18:37:00,59.2,54.4,29.75,ESE,112,6.8,-999.0,84,-99.99,,,0.00,Acu-Link.com,2013-08-04 01:37:00,
2013-08-03 18:52:00,57.9,54.1,29.74,WSW,247,7.8,-999.0,87,-99.99,,,0.00,Acu-Link.com,2013-08-04 01:52:00,
2013-08-03 19:07:00,56.7,53.5,29.74,NNE,22,6.8,-999.0,89,-99.99,,,0.00,Acu-Link.com,2013-08-04 02:07:00,
2013-08-03 19:22:00,55.9,53.6,29.73,WNW,292,4.7,-999.0,92,-99.99,,,0.00,Acu-Link.com,2013-08-04 02:22:00,
2013-08-03 19:37:00,55.2,53.2,29.74,NNW,337,10.4,-999.0,93,-99.99,,,0.00,Acu-Link.com,2013-08-04 02:37:00,
2013-08-03 19:53:00,54.9,53.2,29.74,South,180,7.8,-999.0,94,-99.99,,,0.00,Acu-Link.com,2013-08-04 02:53:00,
2013-08-03 20:08:00,54.5,53.1,29.75,West,270,6.8,-999.0,95,-99.99,,,0.00,Acu-Link.com,2013-08-04 03:08:00,
2013-08-03 20:23:00,54.5,53.1,29.76,NNW,337,6.3,-999.0,95,-99.99,,,0.00,Acu-Link.com,2013-08-04 03:23:00,
2013-08-03 20:38:00,54.3,52.9,29.76,SW,225,5.8,-999.0,95,-99.99,,,0.00,Acu-Link.com,2013-08-04 03:38:00,
2013-08-03 20:53:00,54.3,52.9,29.77,West,270,7.3,-999.0,95,-99.99,,,0.00,Acu-Link.com,2013-08-04 03:53:00,
2013-08-03 21:09:00,54.3,53.2,29.77,North,0,2.7,-999.0,96,-99.99,,,0.00,Acu-Link.com,2013-08-04 04:09:00,
2013-08-03 21:24:00,54.0,52.9,29.78,SSW,202,4.7,-999.0,96,-99.99,,,0.00,Acu-Link.com,2013-08-04 04:24:00,
2013-08-03 21:39:00,53.2,52.4,29.78,West,270,5.8,-999.0,97,-99.99,,,0.00,Acu-Link.com,2013-08-04 04:39:00,
2013-08-03 21:55:00,53.2,52.4,29.79,NNW,337,3.7,-999.0,97,-99.99,,,0.00,Acu-Link.com,2013-08-04 04:55:00,
2013-08-03 22:10:00,52.9,52.4,29.80,ESE,112,2.7,-999.0,98,-99.99,,,0.00,Acu-Link.com,2013-08-04 05:10:00,
2013-08-03 22:25:00,53.1,52.5,29.80,West,270,3.7,-999.0,98,-99.99,,,0.00,Acu-Link.com,2013-08-04 05:25:00,
2013-08-03 22:40:00,53.4,53.1,29.80,NNW,337,0.0,-999.0,99,-99.99,,,0.00,Acu-Link.com,2013-08-04 05:40:00,
2013-08-03 22:56:00,53.6,53.3,29.80,NW,315,4.7,-999.0,99,-99.99,,,0.00,Acu-Link.com,2013-08-04 05:56:00,
2013-08-03 23:26:00,53.6,53.3,29.80,South,180,1.7,-999.0,99,-99.99,,,0.00,Acu-Link.com,2013-08-04 06:26:00,
2013-08-03 23:42:00,53.6,53.3,29.81,NNW,337,4.2,-999.0,99,-99.99,,,0.00,Acu-Link.com,2013-08-04 06:42:00,
2013-08-03 23:57:00,53.6,53.3,29.80,NNE,22,4.2,-999.0,99,-99.99,,,0.00,Acu-Link.com,2013-08-04 06:57:00,